NCAR-RAP Real-Time Weather Data

Output produced by METARs form (23 February 2020  02:03 UTC)
found at http://weather.rap.ucar.edu/surface/
 
RJCB 230100Z 18005KT 140V220 9999 FEW020 SCT160 02/M04 Q0991
 
RJCC 230130Z 33013KT 9999 -SHSN FEW010 SCT020 BKN035 03/M02 Q0996 RMK 1ST010 3CU020 6CU035 A2942
 
RJCH 230129Z 27015G30KT 2400 -SHSN FEW005 SCT008 BKN012 00/M01 Q1002 RMK 1ST005 3ST008 6ST012 A2961
 
RJCK 230100Z 21014KT 9999 FEW010 SCT030 01/M02 Q0990
 
RJCM 230100Z 20011KT 9999 -SHSN FEW015 SCT020 BKN040 03/M05 Q0989
 
RJCN 230100Z 25013KT 9999 FEW010 SCT070 BKN170 02/M03 Q0989
 
RJEC 230138Z 23006KT 180V300 5000 -SHSN FEW005 SCT015 BKN025 00/M01 Q0992 RMK 1ST005 4ST015 6CU025 A2930
 
RJSA 230150Z 26020G33KT 0700 R24/0800VP1800D SHSN FEW003 SCT005 BKN009 M01/M03 Q1006 RMK 1ST003 3ST005 6ST009 A2973
 
RJSC 230129Z 26010G22KT 200V300 5000 -SHRASN BR FEW003 SCT010 BKN015 03/01 Q1013 RMK 1ST003 4ST010 6CU015 A2992
 
RJSF 230147Z 33010KT 280V350 2500 -SHSN BR FEW005 SCT007 BKN010 01/01 Q1014 RMK 1ST005 4ST007 7ST010 A2995
 
RJSI 230139Z 28016G28KT 250V320 0800 R20/0900VP2000D SHSN VV006 01/M01 Q1009 RMK A2980
 
RJSK 230141Z 29028G38KT 4000 R28/2000N -SHSN FEW006 SCT015 BKN025 03/M01 Q1011 RMK 1ST006 3CU015 5CU025 A2987
 
RJSM 230100Z 28027G39KT 8000 -SHSN SCT015 BKN030 03/M04 Q1003
 
RJSN 230100Z 27029G40KT 9999 VCSH FEW015 SCT030 06/M02 Q1017
 
RJSR 230100Z 27023G34KT 7000 -SHSN FEW005 SCT010 BKN020 01/M01 Q1009
 
RJSS 230145Z 31017G28KT 9999 -SHRA FEW006 SCT030 BKN040 05/01 Q1012 RMK 1ST006 3CU030 6CU040 A2991 P/RR
 
RJSY 230100Z 27026G44KT 9999 -SHRASN FEW010 SCT020 BKN030 04/01 Q1014